createdAt,value
2018-01-28T00:00:10.232Z,101684.45
2018-01-28T00:02:37.858Z,101686.23
2018-01-28T00:05:05.503Z,101680.36
2018-01-28T00:07:33.105Z,101684.59
2018-01-28T00:10:00.675Z,101683.45
2018-01-28T00:12:28.298Z,101685.31
2018-01-28T00:14:55.890Z,101685.98
2018-01-28T00:17:23.530Z,101682.65
2018-01-28T00:19:51.082Z,101693.20
2018-01-28T00:22:18.773Z,101687.50
2018-01-28T00:24:46.355Z,101693.42
2018-01-28T00:27:13.935Z,101684.84
2018-01-28T00:29:41.581Z,101687.29
2018-01-28T00:32:09.220Z,101693.89
2018-01-28T00:34:36.818Z,101690.33
2018-01-28T00:37:04.427Z,101688.05
2018-01-28T00:39:31.996Z,101685.05
2018-01-28T00:41:59.576Z,101680.45
2018-01-28T00:44:27.193Z,101681.38
2018-01-28T00:46:54.764Z,101677.71
2018-01-28T00:49:22.334Z,101679.57
2018-01-28T00:51:50.028Z,101680.80
2018-01-28T00:54:17.722Z,101678.05
2018-01-28T00:56:45.423Z,101675.09
2018-01-28T00:59:13.047Z,101680.67
2018-01-28T01:01:40.624Z,101685.06
2018-01-28T01:04:08.181Z,101686.23
2018-01-28T01:06:35.812Z,101684.13
2018-01-28T01:09:03.477Z,101687.67
2018-01-28T01:11:31.069Z,101679.81
2018-01-28T01:13:58.690Z,101680.14
2018-01-28T01:16:26.268Z,101679.58
2018-01-28T01:18:53.827Z,101676.09
2018-01-28T01:21:21.431Z,101675.80
2018-01-28T01:23:49.016Z,101671.33
2018-01-28T01:26:16.583Z,101663.94
2018-01-28T01:28:44.196Z,101661.57
2018-01-28T01:31:11.777Z,101664.44
2018-01-28T01:33:39.331Z,101665.41
2018-01-28T01:36:06.946Z,101657.81
2018-01-28T01:38:34.523Z,101657.00
2018-01-28T01:41:02.108Z,101651.13
2018-01-28T01:43:29.730Z,101659.12
2018-01-28T01:45:57.294Z,101656.47
2018-01-28T01:48:24.859Z,101659.31
2018-01-28T01:50:52.501Z,101665.52
2018-01-28T01:53:20.076Z,101664.31
2018-01-28T01:55:47.640Z,101656.72
2018-01-28T01:58:15.266Z,101662.41
2018-01-28T02:00:42.886Z,101660.91
2018-01-28T02:03:10.543Z,101666.30
2018-01-28T02:05:38.229Z,101661.15
2018-01-28T02:08:05.806Z,101668.80
2018-01-28T02:10:33.403Z,101671.00
2018-01-28T02:13:01.071Z,101658.59
2018-01-28T02:15:28.656Z,101669.69
2018-01-28T02:17:56.315Z,101670.10
2018-01-28T02:20:23.932Z,101671.95
2018-01-28T02:22:51.526Z,101668.11
2018-01-28T02:25:19.081Z,101674.67
2018-01-28T02:27:46.718Z,101666.94
2018-01-28T02:30:14.300Z,101671.28
2018-01-28T02:32:41.880Z,101671.97
2018-01-28T02:35:09.506Z,101667.67
2018-01-28T02:37:37.086Z,101666.48
2018-01-28T02:40:04.655Z,101672.25
2018-01-28T02:42:32.274Z,101679.94
2018-01-28T02:44:59.928Z,101666.48
2018-01-28T02:47:27.617Z,101668.70
2018-01-28T02:49:55.407Z,101674.06
2018-01-28T02:52:22.977Z,101672.67
2018-01-28T02:54:50.738Z,101674.95
2018-01-28T02:57:18.364Z,101675.41
2018-01-28T02:59:45.951Z,101675.95
2018-01-28T03:02:13.539Z,101674.10
2018-01-28T03:04:41.154Z,101675.88
2018-01-28T03:07:08.844Z,101668.77
2018-01-28T03:09:36.416Z,101670.95
2018-01-28T03:12:04.028Z,101668.92
2018-01-28T03:14:31.607Z,101670.96
2018-01-28T03:16:59.312Z,101662.78
2018-01-28T03:19:26.968Z,101665.69
2018-01-28T03:21:54.530Z,101666.80
2018-01-28T03:24:22.206Z,101663.02
2018-01-28T03:26:49.837Z,101657.87
2018-01-28T03:29:17.437Z,101654.47
2018-01-28T03:31:45.406Z,101660.95
2018-01-28T03:34:13.144Z,101667.95
2018-01-28T03:36:40.761Z,101661.88
2018-01-28T03:39:08.457Z,101667.99
2018-01-28T03:41:36.079Z,101669.54
2018-01-28T03:44:03.663Z,101668.89
2018-01-28T03:46:31.248Z,101664.71
2018-01-28T03:48:59.096Z,101668.45
2018-01-28T03:51:26.770Z,101677.42
2018-01-28T03:53:54.444Z,101675.60
2018-01-28T03:56:22.057Z,101674.95
2018-01-28T03:58:49.754Z,101684.84
2018-01-28T04:01:17.341Z,101684.30
2018-01-28T04:03:45.000Z,101688.45
2018-01-28T04:06:12.581Z,101688.57
2018-01-28T04:08:40.414Z,101681.97
2018-01-28T04:11:08.046Z,101685.92
2018-01-28T04:13:35.620Z,101694.18
2018-01-28T04:16:03.234Z,101691.56
2018-01-28T04:18:31.268Z,101697.17
2018-01-28T04:20:58.823Z,101700.78
2018-01-28T04:23:26.395Z,101700.02
2018-01-28T04:25:54.008Z,101694.28
2018-01-28T04:28:21.584Z,101689.40
2018-01-28T04:30:49.151Z,101704.13
2018-01-28T04:33:16.773Z,101705.23
2018-01-28T04:35:44.484Z,101710.34
2018-01-28T04:38:12.056Z,101712.11
2018-01-28T04:40:39.663Z,101718.69
2018-01-28T04:43:07.230Z,101716.88
2018-01-28T04:45:34.812Z,101720.48
2018-01-28T04:48:02.587Z,101717.33
2018-01-28T04:50:30.246Z,101710.99
2018-01-28T04:52:57.841Z,101722.80
2018-01-28T04:55:25.472Z,101730.56
2018-01-28T04:57:53.102Z,101723.11
2018-01-28T05:00:20.731Z,101723.53
2018-01-28T05:02:48.399Z,101730.93
2018-01-28T05:05:16.029Z,101735.41
2018-01-28T05:07:43.693Z,101740.97
2018-01-28T05:10:11.471Z,101751.55
2018-01-28T05:12:39.083Z,101750.98
2018-01-28T05:15:06.679Z,101737.72
2018-01-28T05:17:34.443Z,101725.45
2018-01-28T05:20:02.080Z,101743.48
2018-01-28T05:22:29.701Z,101743.78
2018-01-28T05:24:57.318Z,101735.88
2018-01-28T05:27:24.947Z,101733.45
2018-01-28T05:29:52.588Z,101737.42
2018-01-28T05:32:20.297Z,101734.72
2018-01-28T05:34:47.980Z,101749.48
2018-01-28T05:37:15.628Z,101748.03
2018-01-28T05:39:43.234Z,101753.06
2018-01-28T05:42:10.948Z,101752.14
2018-01-28T05:44:38.537Z,101757.14
2018-01-28T05:47:06.149Z,101752.06
2018-01-28T05:49:33.734Z,101761.22
2018-01-28T05:52:01.352Z,101760.62
2018-01-28T05:54:28.965Z,101759.86
2018-01-28T05:56:56.554Z,101753.72
2018-01-28T05:59:24.138Z,101753.37
2018-01-28T06:01:51.793Z,101753.59
2018-01-28T06:04:19.395Z,101755.45
2018-01-28T06:06:47.163Z,101755.30
2018-01-28T06:09:14.774Z,101758.72
2018-01-28T06:11:42.347Z,101754.95
2018-01-28T06:14:09.907Z,101754.92
2018-01-28T06:16:37.516Z,101760.76
2018-01-28T06:19:05.110Z,101762.11
2018-01-28T06:21:32.695Z,101761.59
2018-01-28T06:24:00.312Z,101762.99
2018-01-28T06:26:27.931Z,101748.80
2018-01-28T06:28:55.565Z,101744.92
2018-01-28T06:31:23.184Z,101745.99
2018-01-28T06:33:50.763Z,101734.27
2018-01-28T06:36:18.343Z,101740.21
2018-01-28T06:38:46.040Z,101740.80
2018-01-28T06:41:13.810Z,101743.53
2018-01-28T06:43:41.375Z,101739.63
2018-01-28T06:46:08.987Z,101738.19
2018-01-28T06:48:36.616Z,101745.08
2018-01-28T06:51:04.210Z,101746.95
2018-01-28T06:53:31.927Z,101750.27
2018-01-28T06:55:59.516Z,101734.13
2018-01-28T06:58:27.110Z,101733.20
2018-01-28T07:00:54.724Z,101732.22
2018-01-28T07:03:22.307Z,101722.20
2018-01-28T07:05:49.888Z,101723.39
2018-01-28T07:08:17.554Z,101719.14
2018-01-28T07:10:45.127Z,101719.67
2018-01-28T07:13:12.727Z,101705.91
2018-01-28T07:15:40.356Z,101719.88
2018-01-28T07:18:07.963Z,101723.12
2018-01-28T07:20:35.539Z,101716.03
2018-01-28T07:23:03.154Z,101721.41
2018-01-28T07:25:30.733Z,101708.24
2018-01-28T07:27:58.342Z,101701.30
2018-01-28T07:30:25.959Z,101706.42
2018-01-28T07:32:53.539Z,101702.30
2018-01-28T07:35:21.099Z,101693.62
2018-01-28T07:37:48.706Z,101694.94
2018-01-28T07:40:16.489Z,101705.23
2018-01-28T07:42:44.079Z,101705.27
2018-01-28T07:45:11.700Z,101706.72
2018-01-28T07:47:39.270Z,101705.48
2018-01-28T07:50:06.929Z,101704.59
2018-01-28T07:52:34.558Z,101701.48
2018-01-28T07:55:02.132Z,101689.52
2018-01-28T07:57:29.915Z,101683.91
2018-01-28T07:59:57.592Z,101683.77
2018-01-28T08:02:25.181Z,101685.31
2018-01-28T08:04:52.808Z,101676.28
2018-01-28T08:07:20.449Z,101678.73
2018-01-28T08:09:49.660Z,101682.36
2018-01-28T08:12:19.162Z,101678.73
2018-01-28T08:14:46.799Z,101681.34
2018-01-28T08:17:14.396Z,101684.80
2018-01-28T08:19:42.338Z,101681.58
2018-01-28T08:22:09.975Z,101672.59
2018-01-28T08:24:37.603Z,101672.17
2018-01-28T08:27:20.899Z,101670.07
2018-01-28T08:29:48.539Z,101671.26
2018-01-28T08:32:16.157Z,101662.16
2018-01-28T08:34:43.806Z,101671.59
2018-01-28T08:37:11.364Z,101673.69
2018-01-28T08:39:38.970Z,101678.22
2018-01-28T08:42:06.602Z,101678.55
2018-01-28T08:44:34.222Z,101679.78
2018-01-28T08:47:01.838Z,101678.49
2018-01-28T08:49:29.455Z,101671.26
2018-01-28T08:51:57.037Z,101674.04
2018-01-28T08:54:24.657Z,101669.52
2018-01-28T08:56:52.278Z,101670.81
2018-01-28T08:59:19.865Z,101677.58
2018-01-28T09:01:47.458Z,101682.17
2018-01-28T09:04:15.064Z,101666.31
2018-01-28T09:06:42.666Z,101663.44
2018-01-28T09:09:10.253Z,101664.36
2018-01-28T09:11:37.870Z,101654.96
2018-01-28T09:14:05.482Z,101650.62
2018-01-28T09:16:33.064Z,101648.86
2018-01-28T09:19:00.691Z,101644.11
2018-01-28T09:21:28.282Z,101641.30
2018-01-28T09:23:55.862Z,101643.55
2018-01-28T09:26:23.496Z,101641.48
2018-01-28T09:28:51.074Z,101644.16
2018-01-28T09:31:18.653Z,101634.62
2018-01-28T09:33:46.270Z,101635.64
2018-01-28T09:36:13.857Z,101629.23
2018-01-28T09:38:41.431Z,101629.21
2018-01-28T09:41:09.086Z,101623.25
2018-01-28T09:43:36.646Z,101621.06
2018-01-28T09:46:04.271Z,101619.36
2018-01-28T09:48:31.871Z,101612.96
2018-01-28T09:50:59.436Z,101604.80
2018-01-28T09:53:26.996Z,101600.66
2018-01-28T09:55:54.590Z,101598.39
2018-01-28T09:58:22.145Z,101598.44
2018-01-28T10:00:49.715Z,101594.12
2018-01-28T10:03:17.300Z,101591.19
2018-01-28T10:05:44.864Z,101587.14
2018-01-28T10:08:12.478Z,101586.91
2018-01-28T10:10:40.075Z,101588.45
2018-01-28T10:13:07.652Z,101573.45
2018-01-28T10:15:35.240Z,101579.45
2018-01-28T10:18:02.834Z,101577.27
2018-01-28T10:20:30.401Z,101574.24
2018-01-28T10:22:57.972Z,101579.16
2018-01-28T10:25:25.575Z,101575.59
2018-01-28T10:27:53.144Z,101564.80
2018-01-28T10:30:20.722Z,101567.82
2018-01-28T10:32:48.340Z,101568.44
2018-01-28T10:35:15.940Z,101562.30
2018-01-28T10:37:43.515Z,101557.09
2018-01-28T10:40:11.144Z,101557.92
2018-01-28T10:42:38.718Z,101556.78
2018-01-28T10:45:06.281Z,101547.28
2018-01-28T10:47:33.886Z,101550.02
2018-01-28T10:50:01.477Z,101557.48
2018-01-28T10:52:29.042Z,101547.74
2018-01-28T10:54:56.636Z,101540.38
2018-01-28T10:57:24.212Z,101542.60
2018-01-28T10:59:51.765Z,101535.89
2018-01-28T11:02:19.350Z,101539.99
2018-01-28T11:04:46.915Z,101541.27
2018-01-28T11:07:14.502Z,101536.50
2018-01-28T11:09:42.109Z,101527.59
2018-01-28T11:12:09.669Z,101529.11
2018-01-28T11:14:37.223Z,101530.77
2018-01-28T11:17:04.870Z,101518.00
2018-01-28T11:19:32.452Z,101515.37
2018-01-28T11:22:00.042Z,101509.81
2018-01-28T11:24:27.695Z,101498.14
2018-01-28T11:26:55.297Z,101498.47
2018-01-28T11:29:22.869Z,101499.31
2018-01-28T11:31:50.531Z,101488.80
2018-01-28T11:34:18.080Z,101489.10
2018-01-28T11:36:45.663Z,101482.97
2018-01-28T11:39:13.310Z,101480.66
2018-01-28T11:41:40.897Z,101473.05
2018-01-28T11:44:08.474Z,101474.11
2018-01-28T11:46:36.083Z,101467.68
2018-01-28T11:49:03.702Z,101471.17
2018-01-28T11:51:31.270Z,101467.41
2018-01-28T11:53:58.878Z,101468.62
2018-01-28T11:56:26.787Z,101468.75
2018-01-28T11:58:55.069Z,101466.27
2018-01-28T12:01:22.728Z,101454.03
2018-01-28T12:03:50.290Z,101452.73
2018-01-28T12:06:19.257Z,101448.75
2018-01-28T12:08:48.689Z,101446.34
2018-01-28T12:11:17.784Z,101450.39
2018-01-28T12:13:47.719Z,101450.11
2018-01-28T12:16:15.495Z,101446.63
2018-01-28T12:18:43.064Z,101442.84
2018-01-28T12:21:10.638Z,101445.88
2018-01-28T12:23:38.241Z,101438.16
2018-01-28T12:26:05.815Z,101440.09
2018-01-28T12:28:33.471Z,101436.71
2018-01-28T12:31:01.086Z,101433.77
2018-01-28T12:33:28.688Z,101432.41
2018-01-28T12:35:56.253Z,101426.86
2018-01-28T12:40:57.672Z,101419.91
2018-01-28T12:43:25.284Z,101419.08
2018-01-28T12:45:52.866Z,101421.19
2018-01-28T12:48:20.438Z,101421.89
2018-01-28T12:50:48.054Z,101417.59
2018-01-28T12:53:15.628Z,101415.44
2018-01-28T12:55:43.214Z,101405.31
2018-01-28T12:58:10.805Z,101407.92
2018-01-28T13:00:38.376Z,101403.61
2018-01-28T13:03:05.932Z,101398.12
2018-01-28T13:05:33.547Z,101390.80
2018-01-28T13:08:01.129Z,101399.40
2018-01-28T13:10:28.701Z,101392.28
2018-01-28T13:12:56.302Z,101391.95
2018-01-28T13:15:23.909Z,101389.91
2018-01-28T13:17:51.479Z,101399.33
2018-01-28T13:20:19.064Z,101394.74
2018-01-28T13:22:46.636Z,101398.80
2018-01-28T13:25:14.223Z,101405.78
2018-01-28T13:27:41.813Z,101402.48
2018-01-28T13:30:09.479Z,101397.72
2018-01-28T13:32:37.046Z,101393.27
2018-01-28T13:35:04.680Z,101380.09
2018-01-28T13:37:32.250Z,101365.13
2018-01-28T13:39:59.810Z,101367.34
2018-01-28T13:42:27.422Z,101370.52
2018-01-28T13:44:55.065Z,101360.28
2018-01-28T13:47:22.655Z,101358.31
2018-01-28T13:49:50.274Z,101364.88
2018-01-28T13:52:17.831Z,101355.69
2018-01-28T13:54:45.406Z,101358.52
2018-01-28T13:57:13.026Z,101357.28
2018-01-28T13:59:40.595Z,101348.64
2018-01-28T14:02:08.212Z,101345.75
2018-01-28T14:04:35.821Z,101339.46
2018-01-28T14:07:03.403Z,101338.41
2018-01-28T14:09:31.082Z,101336.56
2018-01-28T14:11:58.686Z,101332.50
2018-01-28T14:14:26.268Z,101329.38
2018-01-28T14:16:53.850Z,101331.22
2018-01-28T14:19:21.463Z,101334.30
2018-01-28T14:21:49.022Z,101327.31
2018-01-28T14:24:16.602Z,101329.29
2018-01-28T14:26:44.221Z,101330.19
2018-01-28T14:29:11.788Z,101331.91
2018-01-28T14:31:39.412Z,101323.84
2018-01-28T14:34:07.017Z,101328.52
2018-01-28T14:36:34.579Z,101328.19
2018-01-28T14:39:02.230Z,101335.00
2018-01-28T14:41:29.850Z,101327.14
2018-01-28T14:43:57.449Z,101330.89
2018-01-28T14:46:25.066Z,101326.34
2018-01-28T14:48:52.703Z,101327.86
2018-01-28T14:51:20.379Z,101321.47
2018-01-28T14:53:48.036Z,101323.33
2018-01-28T14:56:15.684Z,101318.04
2018-01-28T14:58:43.318Z,101321.64
2018-01-28T15:01:10.881Z,101315.91
2018-01-28T15:03:38.505Z,101320.18
2018-01-28T15:06:06.099Z,101317.02
2018-01-28T15:08:33.674Z,101321.16
2018-01-28T15:11:01.274Z,101329.70
2018-01-28T15:13:28.838Z,101329.31
2018-01-28T15:15:56.396Z,101338.97
2018-01-28T15:18:24.000Z,101335.77
2018-01-28T15:20:51.592Z,101340.44
2018-01-28T15:23:19.212Z,101339.54
2018-01-28T15:25:46.830Z,101342.92
2018-01-28T15:28:14.398Z,101345.94
2018-01-28T15:30:41.970Z,101330.91
2018-01-28T15:33:09.579Z,101351.92
2018-01-28T15:35:37.151Z,101353.01
2018-01-28T15:38:04.758Z,101357.05
2018-01-28T15:40:32.373Z,101357.24
2018-01-28T15:42:59.971Z,101368.11
2018-01-28T15:45:27.529Z,101374.25
2018-01-28T15:47:55.131Z,101371.63
2018-01-28T15:50:22.765Z,101378.36
2018-01-28T15:52:50.454Z,101375.00
2018-01-28T15:55:18.073Z,101384.64
2018-01-28T15:57:45.667Z,101390.03
2018-01-28T16:00:13.262Z,101381.23
2018-01-28T16:02:40.847Z,101385.83
2018-01-28T16:05:08.486Z,101386.33
2018-01-28T16:07:36.070Z,101384.12
2018-01-28T16:10:03.685Z,101383.67
2018-01-28T16:12:31.258Z,101385.42
2018-01-28T16:14:58.822Z,101389.39
2018-01-28T16:17:26.495Z,101382.87
2018-01-28T16:19:54.055Z,101383.53
2018-01-28T16:22:21.650Z,101389.72
2018-01-28T16:24:49.296Z,101382.36
2018-01-28T16:27:16.994Z,101390.07
2018-01-28T16:29:44.654Z,101394.10
2018-01-28T16:32:12.285Z,101390.44
2018-01-28T16:34:39.857Z,101392.26
2018-01-28T16:37:07.415Z,101393.37
2018-01-28T16:39:35.014Z,101393.73
2018-01-28T16:42:02.587Z,101393.23
2018-01-28T16:44:30.232Z,101389.08
2018-01-28T16:46:57.835Z,101392.05
2018-01-28T16:49:25.460Z,101391.89
2018-01-28T16:51:53.037Z,101397.53
2018-01-28T16:54:20.644Z,101392.80
2018-01-28T16:56:48.227Z,101391.24
2018-01-28T16:59:15.800Z,101386.17
2018-01-28T17:01:43.399Z,101392.27
2018-01-28T17:04:10.951Z,101391.16
2018-01-28T17:06:38.632Z,101390.22
2018-01-28T17:09:06.283Z,101380.83
2018-01-28T17:11:33.898Z,101381.85
2018-01-28T17:14:01.515Z,101382.75
2018-01-28T17:16:29.104Z,101379.39
2018-01-28T17:18:56.662Z,101392.05
2018-01-28T17:21:24.271Z,101396.36
2018-01-28T17:23:51.926Z,101392.10
2018-01-28T17:26:19.512Z,101395.87
2018-01-28T17:28:47.081Z,101390.86
2018-01-28T17:31:14.703Z,101388.88
2018-01-28T17:33:42.751Z,101386.70
2018-01-28T17:36:10.364Z,101380.86
2018-01-28T17:38:38.112Z,101387.70
2018-01-28T17:41:05.706Z,101389.18
2018-01-28T17:43:34.084Z,101384.36
2018-01-28T17:46:01.762Z,101387.97
2018-01-28T17:48:29.328Z,101381.00
2018-01-28T17:50:57.341Z,101394.33
2018-01-28T17:53:25.023Z,101403.08
2018-01-28T17:55:52.627Z,101398.64
2018-01-28T17:58:20.246Z,101398.77
2018-01-28T18:00:47.852Z,101400.61
2018-01-28T18:03:15.487Z,101389.53
2018-01-28T18:05:43.068Z,101392.53
2018-01-28T18:08:10.746Z,101390.80
2018-01-28T18:10:38.417Z,101384.73
2018-01-28T18:13:06.069Z,101401.05
2018-01-28T18:15:33.665Z,101390.77
2018-01-28T18:18:01.226Z,101395.61
2018-01-28T18:20:28.838Z,101394.61
2018-01-28T18:22:56.508Z,101396.44
2018-01-28T18:25:24.074Z,101395.95
2018-01-28T18:27:51.665Z,101396.03
2018-01-28T18:30:19.510Z,101396.45
2018-01-28T18:32:47.097Z,101395.55
2018-01-28T18:35:14.689Z,101390.28
2018-01-28T18:37:42.281Z,101385.07
2018-01-28T18:40:09.856Z,101381.17
2018-01-28T18:42:37.504Z,101375.70
2018-01-28T18:45:05.158Z,101372.00
2018-01-28T18:47:32.889Z,101375.92
2018-01-28T18:50:00.459Z,101375.13
2018-01-28T18:52:28.152Z,101369.56
2018-01-28T18:54:55.725Z,101375.66
2018-01-28T18:57:23.309Z,101386.02
2018-01-28T18:59:51.126Z,101395.30
2018-01-28T19:02:18.713Z,101387.48
2018-01-28T19:04:46.295Z,101375.38
2018-01-28T19:07:13.930Z,101379.71
2018-01-28T19:09:41.572Z,101384.22
2018-01-28T19:12:09.206Z,101384.82
2018-01-28T19:14:37.048Z,101393.09
2018-01-28T19:17:04.732Z,101388.86
2018-01-28T19:19:32.354Z,101387.27
2018-01-28T19:22:00.032Z,101375.95
2018-01-28T19:24:27.632Z,101365.11
2018-01-28T19:26:55.241Z,101362.50
2018-01-28T19:29:22.883Z,101354.42
2018-01-28T19:31:50.470Z,101349.30
2018-01-28T19:34:18.032Z,101346.11
2018-01-28T19:36:45.635Z,101327.25
2018-01-28T19:39:13.248Z,101324.69
2018-01-28T19:41:40.813Z,101333.97
2018-01-28T19:44:08.437Z,101333.23
2018-01-28T19:46:36.059Z,101324.39
2018-01-28T19:49:03.661Z,101319.25
2018-01-28T19:51:31.317Z,101327.00
2018-01-28T19:53:58.887Z,101336.20
2018-01-28T19:56:26.494Z,101333.28
2018-01-28T19:58:54.113Z,101332.07
2018-01-28T20:01:21.712Z,101331.75
2018-01-28T20:03:49.285Z,101325.15
2018-01-28T20:06:16.902Z,101320.60
2018-01-28T20:08:44.464Z,101317.19
2018-01-28T20:11:12.049Z,101320.55
2018-01-28T20:13:39.660Z,101309.76
2018-01-28T20:16:07.428Z,101301.05
2018-01-28T20:18:35.030Z,101298.12
2018-01-28T20:21:02.652Z,101302.07
2018-01-28T20:23:30.412Z,101298.41
2018-01-28T20:25:58.121Z,101307.30
2018-01-28T20:28:25.735Z,101307.64
2018-01-28T20:30:53.336Z,101308.33
2018-01-28T20:33:20.956Z,101320.94
2018-01-28T20:35:48.630Z,101322.26
2018-01-28T20:38:16.220Z,101308.08
2018-01-28T20:40:43.827Z,101310.30
2018-01-28T20:43:11.441Z,101309.55
2018-01-28T20:45:39.080Z,101318.73
2018-01-28T20:48:06.637Z,101312.23
2018-01-28T20:50:34.264Z,101317.00
2018-01-28T20:53:01.871Z,101308.09
2018-01-28T20:55:29.448Z,101310.19
2018-01-28T20:57:57.045Z,101298.77
2018-01-28T21:00:24.691Z,101299.41
2018-01-28T21:02:52.251Z,101288.18
2018-01-28T21:05:19.897Z,101293.55
2018-01-28T21:07:47.509Z,101294.67
2018-01-28T21:10:15.099Z,101298.23
2018-01-28T21:12:42.750Z,101300.97
2018-01-28T21:15:13.644Z,101307.08
2018-01-28T21:17:41.376Z,101299.55
2018-01-28T21:20:08.968Z,101289.36
2018-01-28T21:22:36.561Z,101285.05
2018-01-28T21:25:04.229Z,101273.62
2018-01-28T21:27:31.896Z,101273.39
2018-01-28T21:29:59.542Z,101277.23
2018-01-28T21:32:27.112Z,101273.98
2018-01-28T21:34:54.811Z,101278.49
2018-01-28T21:37:22.403Z,101282.72
2018-01-28T21:39:49.995Z,101284.23
2018-01-28T21:42:18.526Z,101292.83
2018-01-28T21:44:46.100Z,101286.67
2018-01-28T21:47:13.745Z,101282.08
2018-01-28T21:49:41.347Z,101274.83
2018-01-28T21:52:08.944Z,101277.63
2018-01-28T21:54:36.586Z,101283.36
2018-01-28T21:57:04.192Z,101276.39
2018-01-28T21:59:31.809Z,101282.06
2018-01-28T22:01:59.376Z,101282.52
2018-01-28T22:04:26.991Z,101274.20
2018-01-28T22:06:54.588Z,101278.14
2018-01-28T22:09:24.727Z,101269.02
2018-01-28T22:11:52.343Z,101271.39
2018-01-28T22:14:19.931Z,101277.61
2018-01-28T22:16:47.495Z,101273.78
2018-01-28T22:19:15.139Z,101270.11
2018-01-28T22:21:42.786Z,101268.91
2018-01-28T22:24:10.340Z,101264.69
2018-01-28T22:26:37.982Z,101251.23
2018-01-28T22:29:05.624Z,101251.05
2018-01-28T22:31:33.211Z,101245.24
2018-01-28T22:34:00.845Z,101240.23
2018-01-28T22:36:28.447Z,101242.14
2018-01-28T22:38:56.106Z,101230.61
2018-01-28T22:41:23.692Z,101230.43
2018-01-28T22:43:51.257Z,101216.78
2018-01-28T22:46:18.856Z,101223.23
2018-01-28T22:48:46.434Z,101222.96
2018-01-28T22:51:14.026Z,101240.80
2018-01-28T22:53:41.622Z,101245.16
2018-01-28T22:56:09.207Z,101247.31
2018-01-28T22:58:36.787Z,101251.21
2018-01-28T23:01:04.415Z,101254.49
2018-01-28T23:03:32.022Z,101258.87
2018-01-28T23:05:59.597Z,101246.69
2018-01-28T23:08:27.207Z,101248.90
2018-01-28T23:10:54.779Z,101245.30
2018-01-28T23:13:22.344Z,101242.12
2018-01-28T23:15:49.970Z,101243.13
2018-01-28T23:18:17.542Z,101236.57
2018-01-28T23:20:45.149Z,101246.23
2018-01-28T23:23:12.734Z,101259.53
2018-01-28T23:25:40.405Z,101263.96
2018-01-28T23:28:08.040Z,101252.70
2018-01-28T23:30:35.654Z,101259.33
2018-01-28T23:33:03.233Z,101257.06
2018-01-28T23:35:30.835Z,101261.38
2018-01-28T23:37:58.506Z,101262.15
2018-01-28T23:40:26.094Z,101268.09
2018-01-28T23:42:53.680Z,101262.28
2018-01-28T23:45:21.275Z,101260.44
2018-01-28T23:47:48.854Z,101265.53
2018-01-28T23:50:16.437Z,101260.08
2018-01-28T23:52:44.049Z,101262.48
2018-01-28T23:55:11.614Z,101262.48
2018-01-28T23:57:39.188Z,101275.65
